الصفحة الرئيسية
METAR-TAF:

METAR-TAF

مطار :

ريغا, لاتفيا

دائرة عرض: 56-55N, خط طول: 023-58E, ارتفاع: 10 متر

مراقبة الطقس الحالي

تاريخ ووقت الإصدار 22 دقيقة قبل الساعة 21:50UTC
ريح 4 عقدة من الجنوب
درجة الحرارة 7°درجة مئوية
الرطوبة 100%
ضغط 1021 hPa
الرؤية: 7000 متر
الضباب الضحلة

METAR: EVRA 172150Z 18004KT 7000 MIFG NSC 07/07 Q1021 R18/090095 NOSIG

زمن: 01:12 (22:12 UTC)

توقعات

تاريخ ووقت الإصدار 2ساعات و 12 دقيقة قبل الساعة 20:00UTC
التوقعات صالحة من17 الساعة 21 UTC إلى 18 الساعة 21 UTC
ريح 2 عقدةمن اتجاهات متغيرة
الرؤية 10 كم أو أكثر
الغيوم لا تقل 1500 م ولا وجود لمزنة ركامية السحاب الأسود
مؤقت
من 17 الساعة 21 UTC إلى 17 الساعة 24 UTC
الرؤية: 0700 متر
ضباب
مؤقت
من 18 الساعة 00 UTC إلى 18 الساعة 06 UTC
الرؤية: 0500 متر
غيوم مفككة على ارتفاع 100 قدم
ضباب
أصبح
من 18 الساعة 06 UTC إلى 18 الساعة 08 UTC
ريح 7 عقدة من الجنوب
أصبح
من 18 الساعة 14 UTC إلى 18 الساعة 16 UTC
ريح 5 عقدة من الغرب

TAF: EVRA 172000Z 1721/1821 VRB02KT CAVOK TEMPO 1721/1724 0700 FG TEMPO 1800/1806 0500 FG BKN001 BECMG 1806/1808 18007KT BECMG 1814/1816 27005KT

أرصاد الطقس والتوقعات من أكثر من 4000 مطار (تقارير الطقس للمطار METAR والتنبؤ بالطقس بالمطارTAF).

المحطات المتاحة هي النقط الصفراء والحمراء على الخريطة.

حرك المؤشر فوق النقطة لمعرفة اسم المحطة.

ثم انقر لمعرفة أرصاد وتوقعات الطقس.

لتغيير الخارطة: اضغط على الأزرار الخضراء مع رمز الصليب الأسود للتكبير. على الزر الأخضر مع شرطة للتصغير، أو على الأسهم الخضراء للخرائط المجاورة.


METAR-TAF: